Antrim, NH

12:36 PM EST on January 27, 2015 (GMT -0500)
Clark Farm | Change Station
CLOSE
Current Station
Personal Weather Station
Location: Hancock, NH
Elevation: 1299 ft
Nearby Weather Stations
Active Advisory: Winter Storm Warning Active Notice: Public Information Statement

Elev 1299 ft 43.00 °N, 72.02 °W | Updated 12 minutes ago

Snow
Snow
17.1 °F
Feels Like 10 °F
N
5.0
Wind Variable Wind from NNW
Gusts 17.0 mph

Today
High -- | Low -- °F
--% Chance of Precip.
Yesterday
High -- | Low -- °F
Precip. -- in
7:08 AM 4:53 PM
First Quarter, 56% visible
Pressure 29.52 in
Visibility 0.8 miles
Clouds
Windchill 10 °F
Dew Point 15 °F
Humidity 92%
Rainfall 0.00 in
Snow Depth Not available.
UV Not available.
Pollen .10 out of 12
Air Quality Not available.
Flu Activity Not available.
SPECI KAFN 271702Z AUTO 35010G18KT 320V030 3/4SM -SN VV015 M07/M11 A2952 RMK AO2 P0000 T10721106

More Conditions Fewer Conditions

Pressure 29.52 in
Visibility 0.8 miles
Clouds
Windchill 10 °F
Dew Point 15 °F
Humidity 92%
Rainfall 0.00 in
Snow Depth Not available.
UV Not available.
Pollen .10 out of 12
Air Quality Not available.
Flu Activity Not available.
SPECI KAFN 271702Z AUTO 35010G18KT 320V030 3/4SM -SN VV015 M07/M11 A2952 RMK AO2 P0000 T10721106

More Conditions Fewer Conditions

10-Day Weather Forecast

Almanac

Astronomy

Jan. 27, 2015 Rise Set
Actual Time
Civil Twilight
Nautical Twilight
Astronomical Twilight
Moon
Length of Visible Light
Length of Day
Tomorrow will be .
, % of the Moon is Illuminated

Today's Extremes

State Highs State Lows

Community

WunderPhotos

Upload Photos

1,790,732 photos uploaded!

WunderBlogs® & News

Nearby

Air Quality

  Air Quality AQ Index Pollutant
Not available.

Snow Depth

Station Depth Elevation

Earthquake Activity

City Distance Mag. Time & Date
Minimum magnitude displayed is 2.5.

Coastal Water Temperatures

Place Temperature

Nearby Weather Stations